createdAt,value
2022-08-18T00:01:16.745Z,100.00
2022-08-18T00:06:21.677Z,100.00
2022-08-18T00:11:24.877Z,100.00
2022-08-18T00:16:27.656Z,100.00
2022-08-18T00:21:30.442Z,100.00
2022-08-18T00:26:36.824Z,100.00
2022-08-18T00:31:40.286Z,100.00
2022-08-18T00:36:43.812Z,100.00
2022-08-18T00:41:46.691Z,100.00
2022-08-18T00:46:49.509Z,100.00
2022-08-18T00:51:52.305Z,100.00
2022-08-18T00:56:55.456Z,100.00
2022-08-18T01:02:02.451Z,100.00
2022-08-18T01:07:06.030Z,100.00
2022-08-18T01:12:29.810Z,100.00
2022-08-18T01:17:51.994Z,100.00
2022-08-18T01:22:55.713Z,100.00
2022-08-18T01:28:02.042Z,100.00
2022-08-18T01:33:10.559Z,100.00
2022-08-18T01:38:13.759Z,100.00
2022-08-18T01:43:17.361Z,100.00
2022-08-18T01:48:20.063Z,100.00
2022-08-18T01:53:22.927Z,100.00
2022-08-18T01:58:31.595Z,100.00
2022-08-18T02:03:34.746Z,100.00
2022-08-18T02:08:37.467Z,100.00
2022-08-18T02:13:40.306Z,100.00
2022-08-18T02:18:48.183Z,100.00
2022-08-18T02:23:53.513Z,100.00
2022-08-18T02:28:56.731Z,100.00
2022-08-18T02:33:59.584Z,100.00
2022-08-18T02:39:02.410Z,100.00
2022-08-18T02:44:05.147Z,100.00
2022-08-18T02:49:08.480Z,100.00
2022-08-18T02:54:11.639Z,100.00
2022-08-18T02:59:14.403Z,100.00
2022-08-18T03:04:17.648Z,100.00
2022-08-18T03:09:20.361Z,100.00
2022-08-18T03:14:23.105Z,100.00
2022-08-18T03:19:26.055Z,100.00
2022-08-18T03:24:29.323Z,100.00
2022-08-18T03:29:33.080Z,100.00
2022-08-18T03:34:37.162Z,100.00
2022-08-18T03:39:39.937Z,100.00
2022-08-18T03:44:42.692Z,100.00
2022-08-18T03:49:45.913Z,100.00
2022-08-18T03:54:48.609Z,100.00
2022-08-18T03:59:51.296Z,100.00
2022-08-18T04:04:54.006Z,100.00
2022-08-18T04:09:56.685Z,100.00
2022-08-18T04:15:00.950Z,100.00
2022-08-18T04:20:04.077Z,100.00
2022-08-18T04:25:09.339Z,100.00
2022-08-18T04:30:12.342Z,100.00
2022-08-18T04:35:15.719Z,100.00
2022-08-18T04:40:24.342Z,100.00
2022-08-18T04:45:30.238Z,100.00
2022-08-18T04:50:33.021Z,100.00
2022-08-18T04:55:35.684Z,100.00
2022-08-18T05:00:38.380Z,100.00
2022-08-18T05:05:41.179Z,100.00
2022-08-18T05:10:44.307Z,100.00
2022-08-18T05:16:09.520Z,100.00
2022-08-18T05:21:15.521Z,100.00
2022-08-18T05:26:18.279Z,100.00
2022-08-18T05:31:21.026Z,100.00
2022-08-18T05:36:23.782Z,100.00
2022-08-18T05:41:26.913Z,100.00
2022-08-18T05:46:29.636Z,100.00
2022-08-18T05:51:32.388Z,100.00
2022-08-18T05:56:47.504Z,100.00
2022-08-18T06:01:51.705Z,100.00
2022-08-18T06:06:54.527Z,100.00
2022-08-18T06:11:57.461Z,100.00
2022-08-18T06:17:00.676Z,100.00
2022-08-18T06:22:04.701Z,99.11
2022-08-18T06:27:08.375Z,100.00
2022-08-18T06:32:11.617Z,100.00
2022-08-18T06:37:27.648Z,100.00
2022-08-18T06:42:31.530Z,100.00
2022-08-18T06:47:34.754Z,100.00
2022-08-18T06:52:38.396Z,100.00
2022-08-18T06:57:41.995Z,100.00
2022-08-18T07:02:45.430Z,100.00
2022-08-18T07:07:48.834Z,100.00
2022-08-18T07:12:52.881Z,100.00
2022-08-18T07:17:57.384Z,100.00
2022-08-18T07:23:00.976Z,100.00
2022-08-18T07:28:04.175Z,98.37
2022-08-18T07:33:07.717Z,100.00
2022-08-18T07:38:40.929Z,100.00
2022-08-18T07:43:34.902Z,96.89
2022-08-18T07:48:42.156Z,93.27
2022-08-18T07:53:54.930Z,87.79
2022-08-18T07:58:59.769Z,89.54
2022-08-18T08:04:03.086Z,86.48
2022-08-18T08:09:06.393Z,85.04
2022-08-18T08:14:09.696Z,85.44
2022-08-18T08:19:12.914Z,87.17
2022-08-18T08:24:16.256Z,84.07
2022-08-18T08:29:21.678Z,81.01
2022-08-18T08:34:24.913Z,79.50
2022-08-18T08:39:28.389Z,79.97
2022-08-18T08:44:31.204Z,78.85
2022-08-18T08:49:33.905Z,75.18
2022-08-18T08:54:36.695Z,76.17
2022-08-18T08:59:39.857Z,71.61
2022-08-18T09:04:54.161Z,68.05
2022-08-18T09:10:05.272Z,67.99
2022-08-18T09:15:09.266Z,67.60
2022-08-18T09:20:12.363Z,68.10
2022-08-18T09:25:15.105Z,67.37
2022-08-18T09:30:18.391Z,67.38
2022-08-18T09:35:23.899Z,67.91
2022-08-18T09:41:02.804Z,67.74
2022-08-18T09:46:05.997Z,69.26
2022-08-18T09:51:08.881Z,66.32
2022-08-18T09:56:11.780Z,68.35
2022-08-18T10:01:17.747Z,65.97
2022-08-18T10:06:20.885Z,65.90
2022-08-18T10:11:29.763Z,62.58
2022-08-18T10:16:51.092Z,61.47
2022-08-18T10:21:55.920Z,59.42
2022-08-18T10:26:58.691Z,57.57
2022-08-18T10:32:01.463Z,57.08
2022-08-18T10:37:06.345Z,56.72
2022-08-18T10:42:11.197Z,55.83
2022-08-18T10:47:17.616Z,54.96
2022-08-18T10:52:27.902Z,56.50
2022-08-18T10:57:31.232Z,55.47
2022-08-18T11:02:34.547Z,57.40
2022-08-18T11:07:44.838Z,57.32
2022-08-18T11:12:47.821Z,55.51
2022-08-18T11:17:50.866Z,54.61
2022-08-18T11:22:54.549Z,56.06
2022-08-18T11:27:57.904Z,54.48
2022-08-18T11:33:02.880Z,53.29
2022-08-18T11:38:05.954Z,53.51
2022-08-18T11:43:15.337Z,51.48
2022-08-18T11:48:20.799Z,52.08
2022-08-18T11:53:26.528Z,51.55
2022-08-18T11:58:34.531Z,50.84
2022-08-18T12:03:37.277Z,51.73
2022-08-18T12:08:57.117Z,52.81
2022-08-18T12:14:01.965Z,52.88
2022-08-18T12:19:25.252Z,51.64
2022-08-18T12:24:37.003Z,48.78
2022-08-18T12:35:09.552Z,50.68
2022-08-18T12:40:13.010Z,51.48
2022-08-18T12:45:15.949Z,51.93
2022-08-18T12:50:19.231Z,52.61
2022-08-18T12:55:23.048Z,52.31
2022-08-18T13:00:28.136Z,52.20
2022-08-18T13:05:32.573Z,50.88
2022-08-18T13:10:46.731Z,50.50
2022-08-18T13:15:55.490Z,48.45
2022-08-18T13:21:01.469Z,48.86
2022-08-18T13:26:04.180Z,48.88
2022-08-18T13:31:06.981Z,48.85
2022-08-18T13:36:09.689Z,49.91
2022-08-18T13:41:15.704Z,51.91
2022-08-18T13:46:30.916Z,52.14
2022-08-18T13:51:37.176Z,52.48
2022-08-18T13:56:40.558Z,53.72
2022-08-18T14:01:52.243Z,53.36
2022-08-18T14:06:57.011Z,54.05
2022-08-18T14:12:00.861Z,53.19
2022-08-18T14:17:03.725Z,54.48
2022-08-18T14:22:27.588Z,54.94
2022-08-18T14:27:35.201Z,53.95
2022-08-18T14:32:48.830Z,54.54
2022-08-18T14:37:54.319Z,54.07
2022-08-18T14:42:59.060Z,55.10
2022-08-18T14:48:02.096Z,55.65
2022-08-18T14:53:09.558Z,56.06
2022-08-18T14:58:16.538Z,54.43
2022-08-18T15:03:21.595Z,53.23
2022-08-18T15:08:31.116Z,53.83
2022-08-18T15:13:34.924Z,54.08
2022-08-18T15:18:37.670Z,54.35
2022-08-18T15:23:58.697Z,56.51
2022-08-18T15:29:01.907Z,56.04
2022-08-18T15:34:12.759Z,58.66
2022-08-18T15:39:15.550Z,63.04
2022-08-18T15:44:19.238Z,65.30
2022-08-18T15:49:23.054Z,73.70
2022-08-18T15:54:25.952Z,76.17
2022-08-18T15:59:34.321Z,76.44
2022-08-18T16:04:45.106Z,77.86
2022-08-18T16:09:47.944Z,73.76
2022-08-18T16:14:53.236Z,72.94
2022-08-18T16:19:55.980Z,72.81
2022-08-18T16:24:58.846Z,71.64
2022-08-18T16:30:01.774Z,70.37
2022-08-18T16:35:04.508Z,68.52
2022-08-18T16:40:09.842Z,76.44
2022-08-18T16:45:13.280Z,79.68
2022-08-18T16:50:16.137Z,83.62
2022-08-18T16:55:18.891Z,81.69
2022-08-18T17:00:39.478Z,86.22
2022-08-18T17:05:42.249Z,83.67
2022-08-18T17:10:45.090Z,83.47
2022-08-18T17:15:49.615Z,83.37
2022-08-18T17:20:52.509Z,81.94
2022-08-18T17:25:58.124Z,80.93
2022-08-18T17:31:02.174Z,81.87
2022-08-18T17:36:05.012Z,100.00
2022-08-18T17:41:07.888Z,100.00
2022-08-18T17:46:11.727Z,100.00
2022-08-18T17:51:32.237Z,100.00
2022-08-18T17:56:36.272Z,100.00
2022-08-18T18:01:39.078Z,100.00
2022-08-18T18:06:41.999Z,100.00
2022-08-18T18:11:47.654Z,100.00
2022-08-18T18:16:50.732Z,100.00
2022-08-18T18:22:01.680Z,100.00
2022-08-18T18:27:04.999Z,100.00
2022-08-18T18:32:07.735Z,100.00
2022-08-18T18:37:10.492Z,100.00
2022-08-18T18:42:14.394Z,100.00
2022-08-18T18:47:17.228Z,100.00
2022-08-18T18:52:23.904Z,100.00
2022-08-18T18:57:32.198Z,100.00
2022-08-18T19:02:35.320Z,100.00
2022-08-18T19:07:38.637Z,100.00
2022-08-18T19:12:43.440Z,100.00
2022-08-18T19:17:46.190Z,100.00
2022-08-18T19:22:49.444Z,100.00
2022-08-18T19:27:52.176Z,100.00
2022-08-18T19:32:55.068Z,100.00
2022-08-18T19:37:57.908Z,100.00
2022-08-18T19:43:03.445Z,100.00
2022-08-18T19:48:06.204Z,100.00
2022-08-18T19:53:10.657Z,100.00
2022-08-18T19:58:14.462Z,100.00
2022-08-18T20:03:18.631Z,100.00
2022-08-18T20:08:22.562Z,100.00
2022-08-18T20:13:25.866Z,100.00
2022-08-18T20:18:29.641Z,100.00
2022-08-18T20:23:32.921Z,100.00
2022-08-18T20:28:36.336Z,100.00
2022-08-18T20:33:43.465Z,100.00
2022-08-18T20:38:47.194Z,100.00
2022-08-18T20:43:51.431Z,100.00
2022-08-18T20:49:05.916Z,100.00
2022-08-18T20:54:13.293Z,100.00
2022-08-18T20:59:18.392Z,100.00
2022-08-18T21:04:21.606Z,100.00
2022-08-18T21:09:24.829Z,100.00
2022-08-18T21:14:29.869Z,100.00
2022-08-18T21:19:33.516Z,100.00
2022-08-18T21:24:36.988Z,100.00
2022-08-18T21:29:47.116Z,100.00
2022-08-18T21:34:52.315Z,100.00
2022-08-18T21:39:55.793Z,100.00
2022-08-18T21:45:00.933Z,100.00
2022-08-18T21:50:06.177Z,100.00
2022-08-18T21:55:09.818Z,100.00
2022-08-18T22:00:17.043Z,100.00
2022-08-18T22:05:22.471Z,100.00
2022-08-18T22:10:43.502Z,100.00
2022-08-18T22:15:46.843Z,100.00
2022-08-18T22:20:50.041Z,100.00
2022-08-18T22:25:53.296Z,100.00
2022-08-18T22:30:56.494Z,100.00
2022-08-18T22:35:59.931Z,100.00
2022-08-18T22:41:03.609Z,100.00
2022-08-18T22:46:06.842Z,100.00
2022-08-18T22:51:10.035Z,100.00
2022-08-18T22:56:17.583Z,100.00
2022-08-18T23:01:37.330Z,100.00
2022-08-18T23:06:40.502Z,100.00
2022-08-18T23:11:43.697Z,100.00
2022-08-18T23:16:47.180Z,100.00
2022-08-18T23:21:51.678Z,100.00
2022-08-18T23:26:54.971Z,100.00
2022-08-18T23:31:58.208Z,100.00
2022-08-18T23:37:01.971Z,100.00
2022-08-18T23:42:06.238Z,100.00
2022-08-18T23:47:10.034Z,100.00
2022-08-18T23:52:13.298Z,100.00
2022-08-18T23:57:17.257Z,100.00
